Flight Track Log - Related Links

Times and Time Zones

All times are in EDT time to prevent confusion due to time zone crossing. See the UAL341 flight status page for this flight to view local times or setup timezone preferences in your user account.

Time Position Orientation Groundspeed Altitude Reporting Facility
EDT Latitude Longitude Course Direction KTS MPH feet Rate Location/Type
Wed 10:44:14 PM 39.9167 -104.6500 116° Southeast 179 206 7,600  Level Denver TRACON
Wed 10:45:20 PM 39.8833 -104.5833 123° Southeast 234 269 10,000 1,914 Climbing Denver TRACON
Wed 10:46:00 PM 39.7598 -104.2927 108° East  Level Estimated
Wed 10:46:10 PM 39.8528 -104.5008 116° Southeast 280 322 11,300  Level Denver Center
Wed 10:47:00 PM 39.7146 -104.1721 116° Southeast  Level FlightAware Approximate
Wed 10:47:11 PM 39.8092 -104.3928 118° Southeast 331 381 13,700  Level Denver Center
Wed 10:48:00 PM 39.6804 -104.0456 108° East  Level Estimated
Wed 10:48:13 PM 39.7644 -104.2650 114° Southeast 361 415 16,800  Level Denver Center
Wed 10:49:00 PM 39.6461 -103.9192 116° Southeast  Level Estimated
Wed 10:49:14 PM 39.7236 -104.1461 114° Southeast 363 418 18,700  Level Denver Center
Wed 10:50:16 PM 39.6786 -104.0222 115° Southeast 379 436 20,800 2,780 Climbing Denver Center
Wed 10:51:17 PM 39.6275 -103.8844 116° Southeast 395 455 24,400 3,049 Climbing Denver Center
Wed 10:52:18 PM 39.5786 -103.7575 117° Southeast 391 450 27,000 1,805 Climbing Denver Center
Wed 10:53:20 PM 39.5442 -103.6175 108° East 400 460 28,100 976 Climbing Denver Center
Wed 10:54:21 PM 39.5031 -103.4675 110° East 435 501 29,000 934 Climbing Denver Center
Wed 10:55:22 PM 39.4606 -103.3103 109° East 457 526 30,000 1,073 Climbing Denver Center
Wed 10:56:24 PM 39.4169 -103.1464 109° East 476 548 31,200 976 Climbing Denver Center
Wed 10:57:25 PM 39.3731 -102.9806 109° East 483 556 32,000 393 Climbing Denver Center
Wed 10:58:26 PM 39.3269 -102.8131 110° East 490 564 32,000  Level Denver Center
Wed 10:59:27 PM 39.2764 -102.6300 110° East 492 566 32,000  Level Denver Center
Wed 11:00:29 PM 39.2319 -102.4697 110° East 495 570 32,000  Level Denver Center
Wed 11:01:30 PM 39.1869 -102.3100 110° East 494 568 32,000 197 Level Denver Center
Wed 11:02:31 PM 39.1353 -102.1239 110° East 493 567 32,400 488 Climbing Denver Center
Wed 11:03:33 PM 39.0917 -101.9658 110° East 487 560 33,000 780 Climbing Denver Center
Wed 11:04:34 PM 39.0461 -101.8097 111° Southeast 486 559 34,000 984 Climbing Denver Center
Wed 11:05:35 PM 38.9972 -101.6364 110° East 462 532 35,000 488 Climbing Denver Center
Wed 11:06:37 PM 38.9556 -101.4906 110° East 455 524 35,000  Level Denver Center
Wed 11:07:38 PM 38.9061 -101.3186 110° East 459 528 35,000  Level Denver Center
Wed 11:08:39 PM 38.8628 -101.1725 111° Southeast 457 526 35,000  Level Denver Center
Wed 11:09:40 PM 38.8197 -101.0247 110° East 461 531 35,000  Level Denver Center
Wed 11:10:42 PM 38.7692 -100.8517 110° East 464 534 35,000  Level Denver Center
Wed 11:11:43 PM 38.7244 -100.7011 111° Southeast 469 540 35,000 -541 Level Denver Center
Wed 11:12:44 PM 38.6728 -100.5278 111° Southeast 467 537 33,900 -976 Descending Denver Center
Wed 11:13:46 PM 38.6292 -100.3806 111° Southeast 463 533 33,000 -439 Descending Denver Center
Wed 11:14:47 PM 38.5828 -100.2281 111° Southeast 474 545 33,000  Level Denver Center
Wed 11:15:48 PM 38.5292 -100.0511 111° Southeast 477 549 33,000  Level Denver Center
Wed 11:16:49 PM 38.4836 -99.9022 111° Southeast 471 542 33,000  Level Denver Center
Wed 11:17:25 PM 38.4522 -99.8017 112° Southeast 471 542 33,000  Level Kansas City Center
Wed 11:18:26 PM 38.4056 -99.6525 112° Southeast 471 542 33,000  Level Kansas City Center
Wed 11:19:27 PM 38.3625 -99.5044 110° East 469 540 33,000 541 Level Kansas City Center
Wed 11:20:28 PM 38.3469 -99.3358 97° East 477 549 34,100 1,377 Climbing Kansas City Center
Wed 11:21:29 PM 38.3331 -99.1675 96° East 480 552 35,800 1,426 Climbing Kansas City Center
Wed 11:22:30 PM 38.3203 -99.0042 96° East 469 540 37,000 590 Climbing Kansas City Center
Wed 11:23:31 PM 38.3103 -98.8422 94° East 462 532 37,000  Level Kansas City Center
Wed 11:24:32 PM 38.2989 -98.6775 95° East 466 536 37,000  Level Kansas City Center
Wed 11:25:33 PM 38.2803 -98.5183 98° East 455 524 37,000  Level Kansas City Center
Wed 11:26:34 PM 38.2614 -98.3258 97° East 456 525 37,000  Level Kansas City Center
Wed 11:27:35 PM 38.2489 -98.1633 96° East 458 527 37,000  Level Kansas City Center
Wed 11:28:36 PM 38.2450 -97.9967 92° East 467 537 37,000  Level Kansas City Center
Wed 11:29:37 PM 38.2478 -97.8306 89° East 464 534 37,000  Level Kansas City Center
Wed 11:30:38 PM 38.2486 -97.6633 90° East 468 539 37,000  Level Kansas City Center
Wed 11:31:39 PM 38.2489 -97.4956 90° East 470 541 37,000  Level Kansas City Center
Wed 11:32:40 PM 38.2486 -97.3261 90° East 476 548 37,000 -1,770 Level Kansas City Center
Wed 11:33:41 PM 38.2200 -97.1689 103° East 460 529 33,400 -4,377 Descending Kansas City Center
Wed 11:34:42 PM 38.1364 -97.0397 129° Southeast 473 544 28,100 -4,525 Descending Kansas City Center
Wed 11:35:43 PM 38.0289 -96.9694 153° Southeast 436 502 24,200 -4,098 Descending Kansas City Center
Wed 11:36:04 PM 37.9814 -96.9658 177° South 404 465 22,500 -3,836 Descending Kansas City Center
Wed 11:36:44 PM 37.9200 -96.9828 192° South 396 456 20,300 -3,089 Descending Kansas City Center
Wed 11:37:45 PM 37.8361 -97.0561 215° Southwest 364 419 17,300 -2,975 Descending Kansas City Center
Wed 11:38:45 PM 37.7578 -97.1272 216° Southwest 347 399 14,300 -3,360 Descending Kansas City Center
Wed 11:39:00 PM 37.7331 -97.1514 218° Southwest 328 377 13,100 -3,049 Descending Kansas City Center
Wed 11:39:46 PM 37.6886 -97.1947 218° Southwest 318 366 11,200 -2,411 Descending Kansas City Center
Wed 11:40:47 PM 37.6292 -97.2575 220° Southwest 278 320 8,800 -2,656 Descending Kansas City Center
Wed 11:41:48 PM 37.5733 -97.3161 220° Southwest 263 303 5,800 -2,754 Descending Kansas City Center
Wed 11:42:49 PM 37.5139 -97.3750 218° Southwest 265 305 3,200 -1,377 Descending Kansas City Center
Wed 11:43:50 PM 37.4614 -97.4344 222° Southwest 264 304 3,000 -197 Descending Kansas City Center

Login

Don't have an account? Register now (free) for customized features, flight alerts, and more!